sensor_id;sensor_type;location;lat;lon;timestamp;pressure;altitude;pressure_sealevel;temperature;humidity
76285;BME280;71676;50.998;7.098;2023-11-19T00:01:42;100475.09;;;7.69;80.66
76285;BME280;71676;50.998;7.098;2023-11-19T00:04:08;100479.19;;;7.56;81.53
76285;BME280;71676;50.998;7.098;2023-11-19T00:06:36;100467.19;;;7.54;81.25
76285;BME280;71676;50.998;7.098;2023-11-19T00:09:03;100471.84;;;7.79;80.74
76285;BME280;71676;50.998;7.098;2023-11-19T00:11:30;100470.84;;;7.69;81.03
76285;BME280;71676;50.998;7.098;2023-11-19T00:13:56;100458.72;;;7.61;81.66
76285;BME280;71676;50.998;7.098;2023-11-19T00:16:23;100454.53;;;7.67;81.28
76285;BME280;71676;50.998;7.098;2023-11-19T00:18:50;100455.53;;;7.75;81.20
76285;BME280;71676;50.998;7.098;2023-11-19T00:21:16;100440.19;;;7.78;80.86
76285;BME280;71676;50.998;7.098;2023-11-19T00:23:44;100454.81;;;7.84;81.02
76285;BME280;71676;50.998;7.098;2023-11-19T00:26:11;100440.28;;;7.83;80.87
76285;BME280;71676;50.998;7.098;2023-11-19T00:28:40;100437.69;;;7.82;81.29
76285;BME280;71676;50.998;7.098;2023-11-19T00:31:08;100428.25;;;7.82;81.27
76285;BME280;71676;50.998;7.098;2023-11-19T00:33:35;100406.53;;;7.57;82.01
76285;BME280;71676;50.998;7.098;2023-11-19T00:36:03;100392.97;;;7.69;82.06
76285;BME280;71676;50.998;7.098;2023-11-19T00:38:29;100416.34;;;7.87;81.50
76285;BME280;71676;50.998;7.098;2023-11-19T00:40:58;100424.31;;;8.08;80.81
76285;BME280;71676;50.998;7.098;2023-11-19T00:43:24;100436.50;;;8.24;80.36
76285;BME280;71676;50.998;7.098;2023-11-19T00:45:52;100425.47;;;8.33;79.74
76285;BME280;71676;50.998;7.098;2023-11-19T00:48:19;100427.19;;;8.35;79.61
76285;BME280;71676;50.998;7.098;2023-11-19T00:50:45;100430.72;;;8.43;79.62
76285;BME280;71676;50.998;7.098;2023-11-19T00:53:12;100421.38;;;8.53;79.13
76285;BME280;71676;50.998;7.098;2023-11-19T00:55:39;100431.72;;;8.60;78.64
76285;BME280;71676;50.998;7.098;2023-11-19T00:58:06;100415.50;;;8.63;78.67
76285;BME280;71676;50.998;7.098;2023-11-19T01:00:33;100426.59;;;8.63;78.62
76285;BME280;71676;50.998;7.098;2023-11-19T01:03:00;100405.09;;;8.54;78.77
76285;BME280;71676;50.998;7.098;2023-11-19T01:05:27;100418.06;;;8.64;78.93
76285;BME280;71676;50.998;7.098;2023-11-19T01:07:53;100421.56;;;8.69;78.38
76285;BME280;71676;50.998;7.098;2023-11-19T01:10:20;100417.25;;;8.68;78.65
76285;BME280;71676;50.998;7.098;2023-11-19T01:12:47;100409.44;;;8.59;78.60
76285;BME280;71676;50.998;7.098;2023-11-19T01:15:15;100408.50;;;8.48;79.98
76285;BME280;71676;50.998;7.098;2023-11-19T01:17:43;100399.88;;;8.43;79.85
76285;BME280;71676;50.998;7.098;2023-11-19T01:20:11;100402.47;;;8.46;79.77
76285;BME280;71676;50.998;7.098;2023-11-19T01:22:38;100412.88;;;8.58;79.21
76285;BME280;71676;50.998;7.098;2023-11-19T01:25:06;100406.00;;;8.59;79.22
76285;BME280;71676;50.998;7.098;2023-11-19T01:27:33;100423.25;;;8.69;79.00
76285;BME280;71676;50.998;7.098;2023-11-19T01:30:00;100431.03;;;8.79;78.86
76285;BME280;71676;50.998;7.098;2023-11-19T01:32:30;100426.88;;;8.90;78.05
76285;BME280;71676;50.998;7.098;2023-11-19T01:34:56;100425.16;;;8.91;78.33
76285;BME280;71676;50.998;7.098;2023-11-19T01:37:23;100419.22;;;8.95;78.25
76285;BME280;71676;50.998;7.098;2023-11-19T01:39:50;100414.94;;;8.98;77.97
76285;BME280;71676;50.998;7.098;2023-11-19T01:42:16;100423.53;;;9.02;77.73
76285;BME280;71676;50.998;7.098;2023-11-19T01:44:55;100433.00;;;9.03;77.79
76285;BME280;71676;50.998;7.098;2023-11-19T01:47:22;100431.31;;;9.08;77.76
76285;BME280;71676;50.998;7.098;2023-11-19T01:49:51;100411.56;;;9.07;77.45
76285;BME280;71676;50.998;7.098;2023-11-19T01:52:18;100412.44;;;9.07;77.84
76285;BME280;71676;50.998;7.098;2023-11-19T01:54:45;100421.00;;;9.06;77.90
76285;BME280;71676;50.998;7.098;2023-11-19T01:57:13;100414.16;;;9.07;77.78
76285;BME280;71676;50.998;7.098;2023-11-19T01:59:40;100403.84;;;9.07;77.78
76285;BME280;71676;50.998;7.098;2023-11-19T02:02:07;100411.56;;;9.05;77.95
76285;BME280;71676;50.998;7.098;2023-11-19T02:04:34;100425.31;;;9.09;78.04
76285;BME280;71676;50.998;7.098;2023-11-19T02:07:02;100419.31;;;9.08;78.11
76285;BME280;71676;50.998;7.098;2023-11-19T02:09:29;100419.44;;;9.19;77.71
76285;BME280;71676;50.998;7.098;2023-11-19T02:11:55;100416.00;;;9.18;77.46
76285;BME280;71676;50.998;7.098;2023-11-19T02:14:24;100409.94;;;9.12;77.81
76285;BME280;71676;50.998;7.098;2023-11-19T02:16:52;100405.56;;;9.05;78.39
76285;BME280;71676;50.998;7.098;2023-11-19T02:19:19;100403.03;;;9.08;78.28
76285;BME280;71676;50.998;7.098;2023-11-19T02:21:45;100397.84;;;9.06;78.43
76285;BME280;71676;50.998;7.098;2023-11-19T02:24:15;100394.50;;;9.12;78.30
76285;BME280;71676;50.998;7.098;2023-11-19T02:26:51;100378.16;;;9.10;78.52
76285;BME280;71676;50.998;7.098;2023-11-19T02:29:22;100376.41;;;9.01;79.08
76285;BME280;71676;50.998;7.098;2023-11-19T02:31:49;100378.13;;;9.04;78.89
76285;BME280;71676;50.998;7.098;2023-11-19T02:34:16;100374.75;;;9.09;78.74
76285;BME280;71676;50.998;7.098;2023-11-19T02:36:42;100370.53;;;9.16;78.71
76285;BME280;71676;50.998;7.098;2023-11-19T02:39:09;100370.50;;;9.14;79.20
76285;BME280;71676;50.998;7.098;2023-11-19T02:41:36;100377.28;;;9.06;79.36
76285;BME280;71676;50.998;7.098;2023-11-19T02:44:05;100369.66;;;9.14;79.17
76285;BME280;71676;50.998;7.098;2023-11-19T02:46:33;100369.59;;;9.09;79.87
76285;BME280;71676;50.998;7.098;2023-11-19T02:49:00;100366.97;;;9.06;80.31
76285;BME280;71676;50.998;7.098;2023-11-19T02:51:27;100352.38;;;8.98;81.21
76285;BME280;71676;50.998;7.098;2023-11-19T02:53:55;100354.09;;;9.05;80.77
76285;BME280;71676;50.998;7.098;2023-11-19T02:56:22;100352.44;;;9.10;80.79
76285;BME280;71676;50.998;7.098;2023-11-19T02:58:51;100347.34;;;9.13;79.84
76285;BME280;71676;50.998;7.098;2023-11-19T03:01:22;100321.56;;;9.08;79.85
76285;BME280;71676;50.998;7.098;2023-11-19T03:03:56;100349.22;;;9.34;79.46
76285;BME280;71676;50.998;7.098;2023-11-19T03:06:23;100350.06;;;9.36;79.34
76285;BME280;71676;50.998;7.098;2023-11-19T03:08:50;100350.06;;;9.39;79.30
76285;BME280;71676;50.998;7.098;2023-11-19T03:11:17;100353.50;;;9.36;79.78
76285;BME280;71676;50.998;7.098;2023-11-19T03:13:43;100350.06;;;9.36;80.15
76285;BME280;71676;50.998;7.098;2023-11-19T03:16:10;100367.22;;;9.37;79.75
76285;BME280;71676;50.998;7.098;2023-11-19T03:18:37;100342.34;;;9.40;80.18
76285;BME280;71676;50.998;7.098;2023-11-19T03:21:06;100346.69;;;9.46;79.83
76285;BME280;71676;50.998;7.098;2023-11-19T03:23:33;100343.25;;;9.47;79.54
76285;BME280;71676;50.998;7.098;2023-11-19T03:26:00;100342.44;;;9.54;79.48
76285;BME280;71676;50.998;7.098;2023-11-19T03:28:28;100346.72;;;9.53;79.28
76285;BME280;71676;50.998;7.098;2023-11-19T03:30:56;100344.19;;;9.58;78.95
76285;BME280;71676;50.998;7.098;2023-11-19T03:33:23;100335.59;;;9.56;79.37
76285;BME280;71676;50.998;7.098;2023-11-19T03:35:53;100337.31;;;9.61;78.90
76285;BME280;71676;50.998;7.098;2023-11-19T03:38:21;100341.63;;;9.67;78.95
76285;BME280;71676;50.998;7.098;2023-11-19T03:40:47;100330.47;;;9.69;78.68
76285;BME280;71676;50.998;7.098;2023-11-19T03:43:14;100327.91;;;9.69;78.91
76285;BME280;71676;50.998;7.098;2023-11-19T03:45:41;100333.03;;;9.68;78.91
76285;BME280;71676;50.998;7.098;2023-11-19T03:48:07;100337.38;;;9.75;78.50
76285;BME280;71676;50.998;7.098;2023-11-19T03:50:34;100345.13;;;9.78;78.48
76285;BME280;71676;50.998;7.098;2023-11-19T03:53:00;100350.25;;;9.78;78.87
76285;BME280;71676;50.998;7.098;2023-11-19T03:55:29;100345.13;;;9.78;78.88
76285;BME280;71676;50.998;7.098;2023-11-19T03:57:56;100323.63;;;9.70;78.57
76285;BME280;71676;50.998;7.098;2023-11-19T04:00:23;100325.34;;;9.72;78.84
76285;BME280;71676;50.998;7.098;2023-11-19T04:02:49;100342.53;;;9.78;79.29
76285;BME280;71676;50.998;7.098;2023-11-19T04:05:16;100320.19;;;9.69;78.73
76285;BME280;71676;50.998;7.098;2023-11-19T04:07:44;100310.72;;;9.59;78.85
76285;BME280;71676;50.998;7.098;2023-11-19T04:10:10;100353.72;;;9.84;78.36
76285;BME280;71676;50.998;7.098;2023-11-19T04:12:38;100341.75;;;9.97;78.17
76285;BME280;71676;50.998;7.098;2023-11-19T04:15:08;100355.50;;;9.99;78.20
76285;BME280;71676;50.998;7.098;2023-11-19T04:17:35;100356.31;;;9.99;78.09
76285;BME280;71676;50.998;7.098;2023-11-19T04:20:02;100310.78;;;9.79;78.02
76285;BME280;71676;50.998;7.098;2023-11-19T04:22:29;100352.06;;;10.03;78.20
76285;BME280;71676;50.998;7.098;2023-11-19T04:24:56;100351.22;;;10.04;78.00
76285;BME280;71676;50.998;7.098;2023-11-19T04:27:23;100339.16;;;10.00;77.90
76285;BME280;71676;50.998;7.098;2023-11-19T04:29:52;100352.09;;;10.09;77.84
76285;BME280;71676;50.998;7.098;2023-11-19T04:32:18;100350.34;;;10.11;77.70
76285;BME280;71676;50.998;7.098;2023-11-19T04:34:46;100350.34;;;10.06;78.03
76285;BME280;71676;50.998;7.098;2023-11-19T04:37:12;100349.47;;;10.03;78.15
76285;BME280;71676;50.998;7.098;2023-11-19T04:39:39;100352.06;;;10.04;78.10
76285;BME280;71676;50.998;7.098;2023-11-19T04:42:06;100356.38;;;10.04;78.10
76285;BME280;71676;50.998;7.098;2023-11-19T04:44:32;100371.84;;;10.11;78.19
76285;BME280;71676;50.998;7.098;2023-11-19T04:47:00;100358.09;;;10.15;77.60
76285;BME280;71676;50.998;7.098;2023-11-19T04:49:27;100356.38;;;10.16;77.85
76285;BME280;71676;50.998;7.098;2023-11-19T04:51:53;100355.56;;;10.20;77.59
76285;BME280;71676;50.998;7.098;2023-11-19T04:54:22;100360.69;;;10.18;77.68
76285;BME280;71676;50.998;7.098;2023-11-19T04:56:49;100358.97;;;10.19;77.84
76285;BME280;71676;50.998;7.098;2023-11-19T04:59:16;100359.84;;;10.16;77.73
76285;BME280;71676;50.998;7.098;2023-11-19T05:01:46;100357.25;;;10.13;77.50
76285;BME280;71676;50.998;7.098;2023-11-19T05:04:14;100369.28;;;10.17;77.49
76285;BME280;71676;50.998;7.098;2023-11-19T05:06:41;100364.09;;;10.11;77.19
76285;BME280;71676;50.998;7.098;2023-11-19T05:09:07;100371.00;;;10.24;77.07
76285;BME280;71676;50.998;7.098;2023-11-19T05:11:34;100372.72;;;10.19;77.15
76285;BME280;71676;50.998;7.098;2023-11-19T05:14:02;100323.69;;;9.95;77.40
76285;BME280;71676;50.998;7.098;2023-11-19T05:16:29;100361.53;;;10.25;76.75
76285;BME280;71676;50.998;7.098;2023-11-19T05:18:56;100367.56;;;10.31;76.66
76285;BME280;71676;50.998;7.098;2023-11-19T05:21:24;100369.31;;;10.28;76.82
76285;BME280;71676;50.998;7.098;2023-11-19T05:23:51;100373.59;;;10.21;76.50
76285;BME280;71676;50.998;7.098;2023-11-19T05:26:18;100374.44;;;10.23;76.74
76285;BME280;71676;50.998;7.098;2023-11-19T05:28:46;100371.03;;;10.29;75.86
76285;BME280;71676;50.998;7.098;2023-11-19T05:31:12;100382.19;;;10.28;76.24
76285;BME280;71676;50.998;7.098;2023-11-19T05:33:39;100383.03;;;10.18;75.51
76285;BME280;71676;50.998;7.098;2023-11-19T05:36:06;100386.44;;;10.15;75.73
76285;BME280;71676;50.998;7.098;2023-11-19T05:38:35;100383.00;;;10.12;75.22
76285;BME280;71676;50.998;7.098;2023-11-19T05:41:02;100383.88;;;10.17;75.56
76285;BME280;71676;50.998;7.098;2023-11-19T05:43:30;100393.31;;;10.10;75.67
76285;BME280;71676;50.998;7.098;2023-11-19T05:45:56;100386.44;;;10.14;75.59
76285;BME280;71676;50.998;7.098;2023-11-19T05:48:25;100396.72;;;10.14;75.06
76285;BME280;71676;50.998;7.098;2023-11-19T05:50:52;100405.31;;;10.05;75.30
76285;BME280;71676;50.998;7.098;2023-11-19T05:53:20;100394.16;;;10.08;75.08
76285;BME280;71676;50.998;7.098;2023-11-19T05:55:48;100407.88;;;10.05;75.30
76285;BME280;71676;50.998;7.098;2023-11-19T05:58:20;100407.00;;;10.00;75.50
76285;BME280;71676;50.998;7.098;2023-11-19T06:00:48;100407.91;;;10.08;75.16
76285;BME280;71676;50.998;7.098;2023-11-19T06:03:16;100382.91;;;9.85;74.21
76285;BME280;71676;50.998;7.098;2023-11-19T06:05:44;100409.59;;;10.03;74.06
76285;BME280;71676;50.998;7.098;2023-11-19T06:08:10;100400.97;;;9.92;74.46
76285;BME280;71676;50.998;7.098;2023-11-19T06:10:38;100409.56;;;9.96;74.12
76285;BME280;71676;50.998;7.098;2023-11-19T06:13:06;100404.44;;;9.97;73.82
76285;BME280;71676;50.998;7.098;2023-11-19T06:15:35;100405.31;;;10.01;72.91
76285;BME280;71676;50.998;7.098;2023-11-19T06:18:02;100414.72;;;9.99;73.06
76285;BME280;71676;50.998;7.098;2023-11-19T06:20:28;100425.03;;;10.02;73.69
76285;BME280;71676;50.998;7.098;2023-11-19T06:22:57;100424.19;;;10.01;73.82
76285;BME280;71676;50.998;7.098;2023-11-19T06:25:24;100428.50;;;10.07;73.51
76285;BME280;71676;50.998;7.098;2023-11-19T06:27:51;100424.97;;;9.91;73.73
76285;BME280;71676;50.998;7.098;2023-11-19T06:30:19;100438.75;;;9.96;73.27
76285;BME280;71676;50.998;7.098;2023-11-19T06:32:46;100436.16;;;9.92;73.44
76285;BME280;71676;50.998;7.098;2023-11-19T06:35:13;100436.25;;;10.08;72.36
76285;BME280;71676;50.998;7.098;2023-11-19T06:37:40;100434.44;;;9.94;73.11
76285;BME280;71676;50.998;7.098;2023-11-19T06:40:08;100439.63;;;9.97;72.99
76285;BME280;71676;50.998;7.098;2023-11-19T06:42:35;100434.47;;;9.97;72.97
76285;BME280;71676;50.998;7.098;2023-11-19T06:45:01;100440.47;;;9.93;72.73
76285;BME280;71676;50.998;7.098;2023-11-19T06:47:30;100440.47;;;9.93;72.43
76285;BME280;71676;50.998;7.098;2023-11-19T06:49:56;100437.06;;;10.03;71.96
76285;BME280;71676;50.998;7.098;2023-11-19T06:52:23;100426.81;;;10.10;71.25
76285;BME280;71676;50.998;7.098;2023-11-19T06:54:50;100406.94;;;9.90;71.97
76285;BME280;71676;50.998;7.098;2023-11-19T06:57:17;100427.63;;;10.05;72.09
76285;BME280;71676;50.998;7.098;2023-11-19T06:59:43;100433.66;;;10.07;71.91
76285;BME280;71676;50.998;7.098;2023-11-19T07:02:10;100440.50;;;10.03;71.49
76285;BME280;71676;50.998;7.098;2023-11-19T07:04:38;100436.16;;;9.96;70.79
76285;BME280;71676;50.998;7.098;2023-11-19T07:07:04;100434.44;;;9.94;71.54
76285;BME280;71676;50.998;7.098;2023-11-19T07:09:31;100428.44;;;9.98;71.82
76285;BME280;71676;50.998;7.098;2023-11-19T07:12:01;100428.44;;;9.95;72.11
76285;BME280;71676;50.998;7.098;2023-11-19T07:14:30;100425.84;;;9.95;71.77
76285;BME280;71676;50.998;7.098;2023-11-19T07:16:56;100425.03;;;9.99;71.48
76285;BME280;71676;50.998;7.098;2023-11-19T07:19:23;100425.91;;;10.02;71.74
76285;BME280;71676;50.998;7.098;2023-11-19T07:21:52;100417.25;;;9.90;71.67
76285;BME280;71676;50.998;7.098;2023-11-19T07:24:19;100439.63;;;10.00;71.55
76285;BME280;71676;50.998;7.098;2023-11-19T07:26:47;100427.63;;;9.99;70.52
76285;BME280;71676;50.998;7.098;2023-11-19T07:29:14;100432.78;;;10.02;70.38
76285;BME280;71676;50.998;7.098;2023-11-19T07:31:41;100427.63;;;9.99;69.85
76285;BME280;71676;50.998;7.098;2023-11-19T07:34:09;100437.03;;;9.95;70.05
76285;BME280;71676;50.998;7.098;2023-11-19T07:36:37;100436.22;;;10.02;70.57
76285;BME280;71676;50.998;7.098;2023-11-19T07:39:05;100434.50;;;10.06;70.38
76285;BME280;71676;50.998;7.098;2023-11-19T07:41:32;100432.78;;;10.02;71.14
76285;BME280;71676;50.998;7.098;2023-11-19T07:43:58;100441.38;;;10.01;70.70
76285;BME280;71676;50.998;7.098;2023-11-19T07:46:25;100445.66;;;10.03;70.47
76285;BME280;71676;50.998;7.098;2023-11-19T07:48:52;100450.81;;;10.09;70.37
76285;BME280;71676;50.998;7.098;2023-11-19T07:51:19;100440.47;;;9.93;69.35
76285;BME280;71676;50.998;7.098;2023-11-19T07:53:45;100459.38;;;9.99;70.34
76285;BME280;71676;50.998;7.098;2023-11-19T07:56:13;100464.56;;;10.04;70.11
76285;BME280;71676;50.998;7.098;2023-11-19T07:58:40;100474.81;;;9.96;69.05
76285;BME280;71676;50.998;7.098;2023-11-19T08:01:07;100475.66;;;9.94;70.26
76285;BME280;71676;50.998;7.098;2023-11-19T08:03:34;100479.94;;;9.93;69.19
76285;BME280;71676;50.998;7.098;2023-11-19T08:06:01;100472.22;;;9.98;70.14
76285;BME280;71676;50.998;7.098;2023-11-19T08:08:28;100463.59;;;9.84;70.26
76285;BME280;71676;50.998;7.098;2023-11-19T08:10:55;100491.13;;;9.98;69.78
76285;BME280;71676;50.998;7.098;2023-11-19T08:13:23;100486.00;;;10.06;69.63
76285;BME280;71676;50.998;7.098;2023-11-19T08:15:50;100487.69;;;9.98;70.29
76285;BME280;71676;50.998;7.098;2023-11-19T08:18:17;100486.84;;;9.94;70.30
76285;BME280;71676;50.998;7.098;2023-11-19T08:20:44;100487.66;;;9.89;69.49
76285;BME280;71676;50.998;7.098;2023-11-19T08:23:12;100489.34;;;9.84;69.78
76285;BME280;71676;50.998;7.098;2023-11-19T08:25:39;100519.44;;;9.94;69.59
76285;BME280;71676;50.998;7.098;2023-11-19T08:28:05;100516.88;;;9.97;69.28
76285;BME280;71676;50.998;7.098;2023-11-19T08:30:34;100527.28;;;10.09;69.66
76285;BME280;71676;50.998;7.098;2023-11-19T08:33:01;100527.28;;;10.09;69.26
76285;BME280;71676;50.998;7.098;2023-11-19T08:35:29;100520.47;;;10.20;69.21
76285;BME280;71676;50.998;7.098;2023-11-19T08:37:55;100513.56;;;10.20;68.22
76285;BME280;71676;50.998;7.098;2023-11-19T08:40:22;100522.19;;;10.28;68.67
76285;BME280;71676;50.998;7.098;2023-11-19T08:42:49;100518.78;;;10.28;69.04
76285;BME280;71676;50.998;7.098;2023-11-19T08:45:15;100517.94;;;10.33;68.90
76285;BME280;71676;50.998;7.098;2023-11-19T08:47:43;100508.53;;;10.35;68.03
76285;BME280;71676;50.998;7.098;2023-11-19T08:50:11;100504.25;;;10.39;67.29
76285;BME280;71676;50.998;7.098;2023-11-19T08:52:37;100512.00;;;10.42;67.80
76285;BME280;71676;50.998;7.098;2023-11-19T08:55:05;100508.59;;;10.52;66.92
76285;BME280;71676;50.998;7.098;2023-11-19T08:57:31;100479.38;;;10.45;67.10
76285;BME280;71676;50.998;7.098;2023-11-19T08:59:59;100500.88;;;10.58;67.09
76285;BME280;71676;50.998;7.098;2023-11-19T09:02:25;100509.44;;;10.51;66.20
76285;BME280;71676;50.998;7.098;2023-11-19T09:04:53;100500.88;;;10.66;66.30
76285;BME280;71676;50.998;7.098;2023-11-19T09:07:20;100493.09;;;10.49;65.12
76285;BME280;71676;50.998;7.098;2023-11-19T09:09:47;100513.78;;;10.73;66.60
76285;BME280;71676;50.998;7.098;2023-11-19T09:12:14;100514.66;;;10.78;66.10
76285;BME280;71676;50.998;7.098;2023-11-19T09:14:41;100506.97;;;10.87;65.86
76285;BME280;71676;50.998;7.098;2023-11-19T09:17:08;100517.28;;;10.84;65.59
76285;BME280;71676;50.998;7.098;2023-11-19T09:19:34;100495.78;;;10.87;64.68
76285;BME280;71676;50.998;7.098;2023-11-19T09:22:03;100511.31;;;11.06;66.21
76285;BME280;71676;50.998;7.098;2023-11-19T09:24:30;100508.72;;;11.11;64.08
76285;BME280;71676;50.998;7.098;2023-11-19T09:26:56;100514.75;;;11.13;63.42
76285;BME280;71676;50.998;7.098;2023-11-19T09:29:23;100509.59;;;11.11;63.04
76285;BME280;71676;50.998;7.098;2023-11-19T09:31:50;100511.28;;;11.18;62.30
76285;BME280;71676;50.998;7.098;2023-11-19T09:34:16;100509.59;;;11.17;62.60
76285;BME280;71676;50.998;7.098;2023-11-19T09:36:43;100504.41;;;11.19;62.38
76285;BME280;71676;50.998;7.098;2023-11-19T09:39:11;100516.47;;;11.17;62.96
76285;BME280;71676;50.998;7.098;2023-11-19T09:41:40;100504.44;;;11.13;62.00
76285;BME280;71676;50.998;7.098;2023-11-19T09:44:08;100500.97;;;11.23;63.85
76285;BME280;71676;50.998;7.098;2023-11-19T09:46:35;100504.41;;;11.22;62.97
76285;BME280;71676;50.998;7.098;2023-11-19T09:49:03;100507.88;;;11.31;62.12
76285;BME280;71676;50.998;7.098;2023-11-19T09:51:32;100507.84;;;11.36;62.42
76285;BME280;71676;50.998;7.098;2023-11-19T09:53:59;100510.44;;;11.40;61.92
76285;BME280;71676;50.998;7.098;2023-11-19T09:56:29;100517.34;;;11.41;62.14
76285;BME280;71676;50.998;7.098;2023-11-19T09:58:55;100512.16;;;11.31;61.49
76285;BME280;71676;50.998;7.098;2023-11-19T10:01:22;100514.75;;;11.44;61.19
76285;BME280;71676;50.998;7.098;2023-11-19T10:03:50;100503.56;;;11.39;61.43
76285;BME280;71676;50.998;7.098;2023-11-19T10:06:17;100507.00;;;11.43;61.24
76285;BME280;71676;50.998;7.098;2023-11-19T10:08:44;100507.88;;;11.48;62.32
76285;BME280;71676;50.998;7.098;2023-11-19T10:11:11;100499.28;;;11.49;62.43
76285;BME280;71676;50.998;7.098;2023-11-19T10:13:39;100506.19;;;11.54;61.15
76285;BME280;71676;50.998;7.098;2023-11-19T10:16:08;100493.25;;;11.48;60.99
76285;BME280;71676;50.998;7.098;2023-11-19T10:18:37;100492.41;;;11.52;60.63
76285;BME280;71676;50.998;7.098;2023-11-19T10:21:04;100491.53;;;11.61;60.28
76285;BME280;71676;50.998;7.098;2023-11-19T10:23:47;100443.34;;;11.30;59.17
76285;BME280;71676;50.998;7.098;2023-11-19T10:26:14;100487.22;;;11.69;60.85
76285;BME280;71676;50.998;7.098;2023-11-19T10:28:42;100486.34;;;11.70;60.54
76285;BME280;71676;50.998;7.098;2023-11-19T10:31:11;100491.53;;;11.64;59.92
76285;BME280;71676;50.998;7.098;2023-11-19T10:33:38;100488.06;;;11.66;59.88
76285;BME280;71676;50.998;7.098;2023-11-19T10:36:05;100468.28;;;11.70;60.68
76285;BME280;71676;50.998;7.098;2023-11-19T10:38:33;100488.94;;;11.70;60.56
76285;BME280;71676;50.998;7.098;2023-11-19T10:41:00;100482.03;;;11.61;60.54
76285;BME280;71676;50.998;7.098;2023-11-19T10:43:26;100488.94;;;11.73;59.86
76285;BME280;71676;50.998;7.098;2023-11-19T10:46:09;100482.88;;;11.81;60.12
76285;BME280;71676;50.998;7.098;2023-11-19T10:48:36;100456.22;;;11.66;59.02
76285;BME280;71676;50.998;7.098;2023-11-19T10:51:05;100492.38;;;11.72;58.78
76285;BME280;71676;50.998;7.098;2023-11-19T10:53:33;100490.63;;;11.71;59.90
76285;BME280;71676;50.998;7.098;2023-11-19T10:56:05;100493.22;;;11.75;59.02
76285;BME280;71676;50.998;7.098;2023-11-19T10:58:35;100492.38;;;11.73;59.42
76285;BME280;71676;50.998;7.098;2023-11-19T11:01:09;100466.53;;;11.63;59.54
76285;BME280;71676;50.998;7.098;2023-11-19T11:03:39;100493.19;;;11.87;59.62
76285;BME280;71676;50.998;7.098;2023-11-19T11:06:07;100489.72;;;11.93;61.24
76285;BME280;71676;50.998;7.098;2023-11-19T11:08:37;100478.50;;;12.03;60.44
76285;BME280;71676;50.998;7.098;2023-11-19T11:11:05;100464.72;;;12.04;59.92
76285;BME280;71676;50.998;7.098;2023-11-19T11:13:33;100469.06;;;11.97;59.59
76285;BME280;71676;50.998;7.098;2023-11-19T11:16:00;100482.00;;;11.96;58.46
76285;BME280;71676;50.998;7.098;2023-11-19T11:18:28;100460.47;;;11.92;57.82
76285;BME280;71676;50.998;7.098;2023-11-19T11:21:01;100463.00;;;12.00;60.46
76285;BME280;71676;50.998;7.098;2023-11-19T11:23:42;100462.13;;;11.99;59.70
76285;BME280;71676;50.998;7.098;2023-11-19T11:26:29;100476.84;;;11.85;58.99
76285;BME280;71676;50.998;7.098;2023-11-19T11:29:02;100491.47;;;11.83;59.74
76285;BME280;71676;50.998;7.098;2023-11-19T11:31:36;100483.75;;;11.88;60.21
76285;BME280;71676;50.998;7.098;2023-11-19T11:34:24;100482.84;;;11.95;60.65
76285;BME280;71676;50.998;7.098;2023-11-19T11:37:10;100462.97;;;12.06;60.33
76285;BME280;71676;50.998;7.098;2023-11-19T11:39:39;100470.78;;;11.94;60.85
76285;BME280;71676;50.998;7.098;2023-11-19T11:42:34;100474.19;;;12.10;59.91
76285;BME280;71676;50.998;7.098;2023-11-19T11:45:03;100479.34;;;12.08;59.10
76285;BME280;71676;50.998;7.098;2023-11-19T11:48:10;100469.91;;;12.02;59.13
76285;BME280;71676;50.998;7.098;2023-11-19T11:50:56;100446.69;;;11.87;57.92
76285;BME280;71676;50.998;7.098;2023-11-19T11:53:24;100394.25;;;11.69;58.68
76285;BME280;71676;50.998;7.098;2023-11-19T11:55:54;100440.59;;;12.03;57.70
76285;BME280;71676;50.998;7.098;2023-11-19T11:58:25;100435.38;;;12.16;56.42
76285;BME280;71676;50.998;7.098;2023-11-19T12:00:52;100424.13;;;12.26;56.85
76285;BME280;71676;50.998;7.098;2023-11-19T12:03:20;100442.19;;;12.30;55.88
76285;BME280;71676;50.998;7.098;2023-11-19T12:05:48;100443.97;;;12.28;55.84
76285;BME280;71676;50.998;7.098;2023-11-19T12:08:19;100425.84;;;12.28;55.03
76285;BME280;71676;50.998;7.098;2023-11-19T12:10:47;100441.34;;;12.27;55.08
76285;BME280;71676;50.998;7.098;2023-11-19T12:13:15;100435.28;;;12.37;55.98
76285;BME280;71676;50.998;7.098;2023-11-19T12:16:09;100436.97;;;12.44;55.03
76285;BME280;71676;50.998;7.098;2023-11-19T12:18:38;100434.44;;;12.38;55.76
76285;BME280;71676;50.998;7.098;2023-11-19T12:21:05;100444.84;;;12.23;55.00
76285;BME280;71676;50.998;7.098;2023-11-19T12:23:44;100418.06;;;12.33;55.08
76285;BME280;71676;50.998;7.098;2023-11-19T12:26:35;100410.31;;;12.33;55.98
76285;BME280;71676;50.998;7.098;2023-11-19T12:29:02;100417.19;;;12.34;55.43
76285;BME280;71676;50.998;7.098;2023-11-19T12:31:33;100407.69;;;12.39;56.29
76285;BME280;71676;50.998;7.098;2023-11-19T12:34:08;100424.94;;;12.37;55.58
76285;BME280;71676;50.998;7.098;2023-11-19T12:36:38;100424.13;;;12.26;55.79
76285;BME280;71676;50.998;7.098;2023-11-19T12:39:06;100429.38;;;12.14;56.38
76285;BME280;71676;50.998;7.098;2023-11-19T12:41:48;100426.81;;;12.12;56.16
76285;BME280;71676;50.998;7.098;2023-11-19T12:44:17;100400.00;;;12.22;56.29
76285;BME280;71676;50.998;7.098;2023-11-19T12:46:43;100405.94;;;12.45;56.54
76285;BME280;71676;50.998;7.098;2023-11-19T12:49:11;100405.00;;;12.51;56.55
76285;BME280;71676;50.998;7.098;2023-11-19T12:51:38;100409.44;;;12.35;56.53
76285;BME280;71676;50.998;7.098;2023-11-19T12:54:06;100412.16;;;12.10;55.98
76285;BME280;71676;50.998;7.098;2023-11-19T12:56:32;100397.41;;;12.31;56.19
76285;BME280;71676;50.998;7.098;2023-11-19T12:59:10;100407.72;;;12.34;56.16
76285;BME280;71676;50.998;7.098;2023-11-19T13:01:37;100389.72;;;12.15;57.05